createdAt,value
2022-12-17T00:00:48.967Z,0.00
2022-12-17T00:01:48.912Z,0.00
2022-12-17T00:02:48.988Z,0.00
2022-12-17T00:03:48.915Z,0.00
2022-12-17T00:04:48.682Z,0.00
2022-12-17T00:06:57.866Z,0.00
2022-12-17T00:07:58.800Z,0.00
2022-12-17T00:08:58.772Z,0.00
2022-12-17T00:09:58.723Z,0.00
2022-12-17T00:10:58.636Z,0.00
2022-12-17T00:11:58.577Z,0.00
2022-12-17T00:12:58.499Z,0.00
2022-12-17T00:13:58.409Z,0.00
2022-12-17T00:14:58.403Z,0.00
2022-12-17T00:15:58.333Z,0.00
2022-12-17T00:16:58.214Z,0.00
2022-12-17T00:17:58.221Z,0.00
2022-12-17T00:18:58.142Z,0.00
2022-12-17T00:19:58.072Z,0.00
2022-12-17T00:20:58.010Z,0.00
2022-12-17T00:21:57.939Z,0.00
2022-12-17T00:22:57.848Z,0.00
2022-12-17T00:23:57.808Z,0.00
2022-12-17T00:24:57.724Z,0.00
2022-12-17T00:25:57.668Z,0.00
2022-12-17T00:26:57.595Z,0.00
2022-12-17T00:27:57.530Z,0.00
2022-12-17T00:28:57.444Z,0.00
2022-12-17T00:29:57.449Z,0.00
2022-12-17T00:30:57.341Z,0.00
2022-12-17T00:31:57.282Z,0.00
2022-12-17T00:32:57.179Z,0.00
2022-12-17T00:33:57.111Z,0.00
2022-12-17T00:34:57.114Z,0.00
2022-12-17T00:35:57.031Z,0.00
2022-12-17T00:36:56.946Z,0.00
2022-12-17T00:37:56.914Z,0.00
2022-12-17T00:38:56.805Z,0.00
2022-12-17T00:39:59.410Z,0.00
2022-12-17T00:40:56.679Z,0.00
2022-12-17T00:42:17.629Z,0.00
2022-12-17T00:42:56.553Z,0.00
2022-12-17T00:43:56.513Z,0.00
2022-12-17T00:44:56.401Z,0.00
2022-12-17T00:45:56.356Z,0.00
2022-12-17T00:46:56.390Z,0.00
2022-12-17T00:47:56.267Z,0.00
2022-12-17T00:48:56.196Z,0.00
2022-12-17T00:49:56.208Z,0.00
2022-12-17T00:50:56.062Z,0.00
2022-12-17T00:51:55.971Z,0.00
2022-12-17T00:52:55.901Z,0.00
2022-12-17T00:53:55.856Z,0.00
2022-12-17T00:54:55.807Z,0.00
2022-12-17T00:55:55.691Z,0.00
2022-12-17T00:56:56.284Z,0.00
2022-12-17T00:57:55.617Z,0.00
2022-12-17T00:58:55.502Z,0.00
2022-12-17T00:59:55.442Z,0.00
2022-12-17T01:00:55.370Z,0.00
2022-12-17T01:01:55.422Z,0.00
2022-12-17T01:02:55.334Z,0.00
2022-12-17T01:03:55.167Z,0.00
2022-12-17T01:04:55.129Z,0.00
2022-12-17T01:05:55.046Z,0.00
2022-12-17T01:06:54.990Z,0.00
2022-12-17T01:07:54.924Z,0.00
2022-12-17T01:08:54.888Z,0.00
2022-12-17T01:09:54.796Z,0.00
2022-12-17T01:10:54.738Z,0.00
2022-12-17T01:11:56.515Z,0.00
2022-12-17T01:12:54.608Z,0.00
2022-12-17T01:13:54.576Z,0.00
2022-12-17T01:14:54.448Z,0.00
2022-12-17T01:15:54.422Z,0.00
2022-12-17T01:16:56.156Z,0.00
2022-12-17T01:17:56.262Z,0.00
2022-12-17T01:18:54.226Z,0.00
2022-12-17T01:19:54.180Z,0.00
2022-12-17T01:20:54.090Z,0.00
2022-12-17T01:21:54.025Z,0.00
2022-12-17T01:22:53.954Z,0.00
2022-12-17T01:23:53.922Z,0.00
2022-12-17T01:24:53.804Z,0.00
2022-12-17T01:25:53.767Z,0.00
2022-12-17T01:26:53.692Z,0.00
2022-12-17T01:27:53.623Z,0.00
2022-12-17T01:28:53.563Z,0.00
2022-12-17T01:29:53.548Z,0.00
2022-12-17T01:30:53.430Z,0.00
2022-12-17T01:31:53.430Z,0.00
2022-12-17T01:32:53.289Z,0.00
2022-12-17T01:33:53.236Z,0.00
2022-12-17T01:34:53.200Z,0.00
2022-12-17T01:36:14.090Z,0.00
2022-12-17T01:36:53.047Z,0.00
2022-12-17T01:37:53.009Z,0.00
2022-12-17T01:38:52.915Z,0.00
2022-12-17T01:39:52.855Z,0.00
2022-12-17T01:40:52.815Z,0.00
2022-12-17T01:41:52.762Z,0.00
2022-12-17T01:42:52.683Z,0.00
2022-12-17T01:43:52.613Z,0.00
2022-12-17T01:44:52.525Z,0.00
2022-12-17T01:45:52.506Z,0.00
2022-12-17T01:46:52.424Z,0.00
2022-12-17T01:47:52.341Z,0.00
2022-12-17T01:48:52.323Z,0.00
2022-12-17T01:49:52.180Z,0.00
2022-12-17T01:50:52.157Z,0.00
2022-12-17T01:51:52.072Z,0.00
2022-12-17T01:52:52.020Z,0.00
2022-12-17T01:55:01.179Z,0.00
2022-12-17T01:56:02.080Z,0.00
2022-12-17T01:57:02.051Z,0.00
2022-12-17T01:58:01.959Z,0.00
2022-12-17T01:59:01.944Z,0.00
2022-12-17T02:00:01.865Z,0.00
2022-12-17T02:01:01.844Z,0.00
2022-12-17T02:02:02.003Z,0.00
2022-12-17T02:03:01.852Z,0.00
2022-12-17T02:04:01.627Z,0.00
2022-12-17T02:05:01.533Z,0.00
2022-12-17T02:06:01.486Z,0.00
2022-12-17T02:07:01.421Z,0.00
2022-12-17T02:08:01.358Z,0.00
2022-12-17T02:09:01.306Z,0.00
2022-12-17T02:10:01.181Z,0.00
2022-12-17T02:11:01.133Z,0.00
2022-12-17T02:13:40.128Z,0.00
2022-12-17T02:14:40.965Z,0.00
2022-12-17T02:15:40.943Z,0.00
2022-12-17T02:16:40.962Z,0.00
2022-12-17T02:17:40.788Z,0.00
2022-12-17T02:18:40.706Z,0.00
2022-12-17T02:19:40.640Z,0.00
2022-12-17T02:20:40.604Z,0.00
2022-12-17T02:21:40.512Z,0.00
2022-12-17T02:22:40.442Z,0.00
2022-12-17T02:23:43.077Z,0.00
2022-12-17T02:24:40.342Z,0.00
2022-12-17T02:25:40.260Z,0.00
2022-12-17T02:26:40.243Z,0.00
2022-12-17T02:27:40.168Z,0.00
2022-12-17T02:28:40.095Z,0.00
2022-12-17T02:29:40.292Z,0.00
2022-12-17T02:30:39.976Z,0.00
2022-12-17T02:31:39.923Z,0.00
2022-12-17T02:32:39.828Z,0.00
2022-12-17T02:33:39.778Z,0.00
2022-12-17T02:34:39.666Z,0.00
2022-12-17T02:35:39.636Z,0.00
2022-12-17T02:36:39.559Z,0.00
2022-12-17T02:37:39.504Z,0.00
2022-12-17T02:38:39.435Z,0.00
2022-12-17T02:39:39.351Z,0.00
2022-12-17T02:40:39.366Z,0.00
2022-12-17T02:41:39.217Z,0.00
2022-12-17T02:42:39.195Z,0.00
2022-12-17T02:43:39.165Z,0.00
2022-12-17T02:44:39.060Z,0.00
2022-12-17T02:45:39.041Z,0.00
2022-12-17T02:46:38.913Z,0.00
2022-12-17T02:47:38.848Z,0.00
2022-12-17T02:48:38.805Z,0.00
2022-12-17T02:49:38.714Z,0.00
2022-12-17T02:50:38.629Z,0.00
2022-12-17T02:51:38.578Z,0.00
2022-12-17T02:52:38.542Z,0.00
2022-12-17T02:53:38.635Z,0.00
2022-12-17T02:54:38.392Z,0.00
2022-12-17T02:55:38.345Z,0.00
2022-12-17T02:56:38.252Z,0.00
2022-12-17T02:57:43.433Z,0.00
2022-12-17T02:58:38.145Z,0.00
2022-12-17T02:59:38.114Z,0.00
2022-12-17T03:00:38.016Z,0.00
2022-12-17T03:01:37.992Z,0.00
2022-12-17T03:02:38.003Z,0.00
2022-12-17T03:03:38.109Z,0.00
2022-12-17T03:04:37.764Z,0.00
2022-12-17T03:05:45.920Z,0.00
2022-12-17T03:06:37.636Z,0.00
2022-12-17T03:07:37.514Z,0.00
2022-12-17T03:08:37.475Z,0.00
2022-12-17T03:09:37.410Z,0.00
2022-12-17T03:10:37.339Z,0.00
2022-12-17T03:11:37.547Z,0.00
2022-12-17T03:12:37.214Z,0.00
2022-12-17T03:13:37.431Z,0.00
2022-12-17T03:14:37.056Z,0.00
2022-12-17T03:15:37.039Z,0.00
2022-12-17T03:16:37.949Z,0.00
2022-12-17T03:17:36.881Z,0.00
2022-12-17T03:18:36.880Z,0.00
2022-12-17T03:19:36.769Z,0.00
2022-12-17T03:20:36.723Z,0.00
2022-12-17T03:21:36.600Z,0.00
2022-12-17T03:22:36.588Z,0.00
2022-12-17T03:24:45.748Z,0.00
2022-12-17T03:25:46.671Z,0.00
2022-12-17T03:26:46.613Z,0.00
2022-12-17T03:27:46.560Z,0.00
2022-12-17T03:28:46.488Z,0.00
2022-12-17T03:29:46.701Z,0.00
2022-12-17T03:30:49.151Z,0.00
2022-12-17T03:31:46.268Z,0.00
2022-12-17T03:32:46.252Z,0.00
2022-12-17T03:33:46.154Z,0.00
2022-12-17T03:34:46.120Z,0.00
2022-12-17T03:35:46.066Z,0.00
2022-12-17T03:36:45.969Z,0.00
2022-12-17T03:37:45.903Z,0.00
2022-12-17T03:38:45.871Z,0.00
2022-12-17T03:39:45.772Z,0.00
2022-12-17T03:40:45.678Z,0.00
2022-12-17T03:41:45.627Z,0.00
2022-12-17T03:42:45.546Z,0.00
2022-12-17T03:43:45.534Z,0.00
2022-12-17T03:44:45.448Z,0.00
2022-12-17T03:45:45.439Z,0.00
2022-12-17T03:46:45.290Z,0.00
2022-12-17T03:47:45.301Z,0.00
2022-12-17T03:48:45.195Z,0.00
2022-12-17T03:49:45.122Z,0.00
2022-12-17T03:50:45.120Z,0.00
2022-12-17T03:51:45.017Z,0.00
2022-12-17T03:52:44.895Z,0.00
2022-12-17T03:53:44.874Z,0.00
2022-12-17T03:54:44.777Z,0.00
2022-12-17T03:55:44.710Z,0.00
2022-12-17T03:56:44.689Z,0.00
2022-12-17T03:57:44.627Z,0.00
2022-12-17T03:58:44.557Z,0.00
2022-12-17T03:59:44.494Z,0.00
2022-12-17T04:00:44.433Z,0.00
2022-12-17T04:01:44.466Z,0.00
2022-12-17T04:02:44.563Z,0.00
2022-12-17T04:03:44.281Z,0.00
2022-12-17T04:04:44.127Z,0.00
2022-12-17T04:05:44.101Z,0.00
2022-12-17T04:06:44.012Z,0.00
2022-12-17T04:07:43.927Z,0.00
2022-12-17T04:08:43.949Z,0.00
2022-12-17T04:09:43.846Z,0.00
2022-12-17T04:10:43.730Z,0.00
2022-12-17T04:12:04.711Z,0.00
2022-12-17T04:12:43.622Z,0.00
2022-12-17T04:13:43.911Z,0.00
2022-12-17T04:14:43.529Z,0.00
2022-12-17T04:15:43.532Z,0.00
2022-12-17T04:16:43.373Z,0.00
2022-12-17T04:18:04.278Z,0.00
2022-12-17T04:18:43.204Z,0.00
2022-12-17T04:19:43.137Z,0.00
2022-12-17T04:20:43.127Z,0.00
2022-12-17T04:21:43.046Z,0.00
2022-12-17T04:22:42.970Z,0.00
2022-12-17T04:23:42.954Z,0.00
2022-12-17T04:24:42.836Z,0.00
2022-12-17T04:25:42.754Z,0.00
2022-12-17T04:26:42.747Z,0.00
2022-12-17T04:27:42.710Z,0.00
2022-12-17T04:28:42.561Z,0.00
2022-12-17T04:32:21.958Z,0.00
2022-12-17T04:33:01.923Z,0.00
2022-12-17T04:34:01.860Z,0.00
2022-12-17T04:35:01.785Z,0.00
2022-12-17T04:36:01.733Z,0.00
2022-12-17T04:37:01.784Z,0.00
2022-12-17T04:38:01.610Z,0.00
2022-12-17T04:39:01.532Z,0.00
2022-12-17T04:40:01.466Z,0.00
2022-12-17T04:41:01.378Z,0.00
2022-12-17T04:42:01.316Z,0.00
2022-12-17T04:43:01.268Z,0.00
2022-12-17T04:44:03.296Z,0.00
2022-12-17T04:45:01.167Z,0.00
2022-12-17T04:46:01.094Z,0.00
2022-12-17T04:47:01.015Z,0.00
2022-12-17T04:48:00.928Z,0.00
2022-12-17T04:49:00.900Z,0.00
2022-12-17T04:50:00.834Z,0.00
2022-12-17T04:51:00.755Z,0.00
2022-12-17T04:52:00.674Z,0.00
2022-12-17T04:53:00.594Z,0.00
2022-12-17T04:54:00.625Z,0.00
2022-12-17T04:55:00.462Z,0.00
2022-12-17T04:56:00.464Z,0.00
2022-12-17T04:57:00.358Z,0.00
2022-12-17T04:58:00.293Z,0.00
2022-12-17T04:59:00.263Z,0.00
2022-12-17T05:00:00.184Z,0.00
2022-12-17T05:01:00.084Z,0.00
2022-12-17T05:02:00.263Z,0.00
2022-12-17T05:03:00.187Z,0.00
2022-12-17T05:03:59.985Z,0.00
2022-12-17T05:04:59.839Z,0.00
2022-12-17T05:05:59.773Z,0.00
2022-12-17T05:06:59.681Z,0.00
2022-12-17T05:07:59.686Z,0.00
2022-12-17T05:08:59.601Z,0.00
2022-12-17T05:09:59.509Z,0.00
2022-12-17T05:10:59.409Z,0.00
2022-12-17T05:11:59.381Z,0.00
2022-12-17T05:12:59.341Z,0.00
2022-12-17T05:15:39.233Z,0.00
2022-12-17T05:16:40.071Z,0.00
2022-12-17T05:17:40.061Z,0.00
2022-12-17T05:18:39.998Z,0.00
2022-12-17T05:19:39.910Z,0.00
2022-12-17T05:20:39.866Z,0.00
2022-12-17T05:21:39.821Z,0.00
2022-12-17T05:22:39.741Z,0.00
2022-12-17T05:23:39.698Z,0.00
2022-12-17T05:24:39.553Z,0.00
2022-12-17T05:25:39.542Z,0.00
2022-12-17T05:26:39.496Z,0.00
2022-12-17T05:27:39.373Z,0.00
2022-12-17T05:28:39.321Z,0.00
2022-12-17T05:29:39.283Z,0.00
2022-12-17T05:30:39.212Z,0.00
2022-12-17T05:31:39.195Z,0.00
2022-12-17T05:32:39.525Z,0.00
2022-12-17T05:33:39.403Z,0.00
2022-12-17T05:34:38.943Z,0.00
2022-12-17T05:35:38.868Z,0.00
2022-12-17T05:36:38.797Z,0.00
2022-12-17T05:37:38.735Z,0.00
2022-12-17T05:38:38.659Z,0.00
2022-12-17T05:39:38.611Z,0.00
2022-12-17T05:40:38.565Z,0.00
2022-12-17T05:41:38.478Z,0.00
2022-12-17T05:42:38.385Z,0.00
2022-12-17T05:43:38.766Z,0.00
2022-12-17T05:44:38.299Z,0.00
2022-12-17T05:45:38.214Z,0.00
2022-12-17T05:46:38.226Z,0.00
2022-12-17T05:47:38.103Z,0.00
2022-12-17T05:48:37.995Z,0.00
2022-12-17T05:49:37.989Z,0.00
2022-12-17T05:50:37.878Z,0.00
2022-12-17T05:51:38.975Z,0.00
2022-12-17T05:52:37.747Z,0.00
2022-12-17T05:53:38.131Z,0.00
2022-12-17T05:54:37.652Z,0.00
2022-12-17T05:55:37.538Z,0.00
2022-12-17T05:56:37.488Z,0.00
2022-12-17T05:57:37.435Z,0.00
2022-12-17T05:58:37.373Z,0.00
2022-12-17T05:59:37.324Z,0.00
2022-12-17T06:00:37.209Z,0.00
2022-12-17T06:01:37.196Z,0.00
2022-12-17T06:02:37.155Z,0.00
2022-12-17T06:03:37.751Z,0.00
2022-12-17T06:04:36.966Z,0.00
2022-12-17T06:05:36.931Z,0.00
2022-12-17T06:06:36.842Z,0.00
2022-12-17T06:07:36.820Z,0.00
2022-12-17T06:09:45.948Z,0.00
2022-12-17T06:10:46.872Z,0.00
2022-12-17T06:11:46.810Z,0.00
2022-12-17T06:12:46.763Z,0.00
2022-12-17T06:13:46.690Z,0.00
2022-12-17T06:14:46.677Z,0.00
2022-12-17T06:15:46.603Z,0.00
2022-12-17T06:16:46.492Z,0.00
2022-12-17T06:17:46.409Z,0.00
2022-12-17T06:18:46.341Z,0.00
2022-12-17T06:19:46.320Z,0.00
2022-12-17T06:20:46.274Z,0.00
2022-12-17T06:21:46.166Z,0.00
2022-12-17T06:22:46.099Z,0.00
2022-12-17T06:23:46.035Z,0.00
2022-12-17T06:24:46.407Z,0.00
2022-12-17T06:25:45.876Z,0.00
2022-12-17T06:27:06.808Z,0.00
2022-12-17T06:27:45.834Z,0.00
2022-12-17T06:28:45.686Z,0.00
2022-12-17T06:29:45.619Z,0.00
2022-12-17T06:30:45.584Z,0.00
2022-12-17T06:31:45.559Z,0.00
2022-12-17T06:32:45.728Z,0.00
2022-12-17T06:33:45.383Z,0.00
2022-12-17T06:34:45.326Z,0.00
2022-12-17T06:35:45.263Z,0.00
2022-12-17T06:36:45.177Z,0.00
2022-12-17T06:37:45.130Z,0.00
2022-12-17T06:38:45.078Z,0.00
2022-12-17T06:39:45.019Z,0.00
2022-12-17T06:40:44.956Z,0.00
2022-12-17T06:41:44.871Z,0.00
2022-12-17T06:42:44.828Z,0.00
2022-12-17T06:43:44.719Z,0.00
2022-12-17T06:44:44.715Z,0.00
2022-12-17T06:45:44.611Z,0.00
2022-12-17T06:46:44.661Z,0.00
2022-12-17T06:47:44.445Z,0.00
2022-12-17T06:48:44.360Z,0.00
2022-12-17T06:49:44.330Z,0.00
2022-12-17T06:50:44.320Z,0.00
2022-12-17T06:51:44.202Z,0.00
2022-12-17T06:52:44.092Z,0.00
2022-12-17T06:53:44.030Z,0.00
2022-12-17T06:54:44.025Z,0.00
2022-12-17T06:55:43.983Z,0.00
2022-12-17T06:56:43.910Z,0.00
2022-12-17T06:57:48.775Z,0.00
2022-12-17T06:58:43.781Z,0.00
2022-12-17T06:59:43.627Z,0.00
2022-12-17T07:00:43.616Z,0.00
2022-12-17T07:01:43.675Z,0.00
2022-12-17T07:04:42.133Z,0.00
2022-12-17T07:05:43.103Z,0.00
2022-12-17T07:06:43.118Z,0.00
2022-12-17T07:07:42.941Z,0.00
2022-12-17T07:08:42.881Z,0.00
2022-12-17T07:09:42.833Z,0.00
2022-12-17T07:10:42.747Z,0.00
2022-12-17T07:11:42.689Z,0.00
2022-12-17T07:12:42.590Z,0.00
2022-12-17T07:13:42.534Z,0.00
2022-12-17T07:14:42.484Z,0.00
2022-12-17T07:15:42.416Z,0.00
2022-12-17T07:16:42.456Z,0.00
2022-12-17T07:17:42.291Z,0.00
2022-12-17T07:18:42.288Z,0.00
2022-12-17T07:19:42.190Z,0.00
2022-12-17T07:20:42.130Z,0.00
2022-12-17T07:22:03.047Z,0.00
2022-12-17T07:22:41.966Z,0.00
2022-12-17T07:23:41.875Z,0.00
2022-12-17T07:24:41.842Z,0.00
2022-12-17T07:25:45.972Z,0.00
2022-12-17T07:26:41.730Z,0.00
2022-12-17T07:27:41.647Z,0.00
2022-12-17T07:28:41.575Z,0.00
2022-12-17T07:29:41.544Z,0.00
2022-12-17T07:30:41.445Z,0.00
2022-12-17T07:31:41.445Z,0.00
2022-12-17T07:32:41.328Z,0.00
2022-12-17T07:33:41.503Z,0.00
2022-12-17T07:34:41.221Z,0.00
2022-12-17T07:35:41.149Z,0.00
2022-12-17T07:36:41.056Z,0.00
2022-12-17T07:37:40.977Z,0.00
2022-12-17T07:38:40.995Z,5.62
2022-12-17T07:40:50.102Z,0.00
2022-12-17T07:41:51.004Z,0.00
2022-12-17T07:42:50.943Z,5.62
2022-12-17T07:43:53.197Z,5.62
2022-12-17T07:44:50.782Z,5.62
2022-12-17T07:45:50.874Z,5.62
2022-12-17T07:46:50.709Z,5.62
2022-12-17T07:47:51.363Z,5.62
2022-12-17T07:48:50.594Z,5.62
2022-12-17T07:49:50.456Z,5.62
2022-12-17T07:50:50.443Z,5.62
2022-12-17T07:51:50.365Z,5.62
2022-12-17T07:52:50.320Z,5.62
2022-12-17T07:53:50.228Z,5.62
2022-12-17T07:54:50.156Z,5.62
2022-12-17T07:55:50.090Z,5.62
2022-12-17T07:56:50.061Z,5.62
2022-12-17T07:57:49.945Z,5.62
2022-12-17T07:58:49.893Z,5.62
2022-12-17T07:59:49.840Z,5.62
2022-12-17T08:00:49.817Z,5.62
2022-12-17T08:01:50.015Z,5.62
2022-12-17T08:02:49.757Z,5.62
2022-12-17T08:03:49.685Z,5.62
2022-12-17T08:04:49.530Z,5.62
2022-12-17T08:05:49.440Z,5.62
2022-12-17T08:06:49.376Z,11.25
2022-12-17T08:07:49.347Z,11.25
2022-12-17T08:08:49.247Z,11.25
2022-12-17T08:09:49.225Z,11.25
2022-12-17T08:10:49.088Z,11.25
2022-12-17T08:11:49.054Z,11.25
2022-12-17T08:12:48.991Z,16.88
2022-12-17T08:13:48.954Z,11.25
2022-12-17T08:14:48.862Z,16.88
2022-12-17T08:15:48.839Z,16.88
2022-12-17T08:16:48.772Z,16.88
2022-12-17T08:17:48.725Z,16.88
2022-12-17T08:18:48.605Z,16.88
2022-12-17T08:19:48.551Z,16.88
2022-12-17T08:20:48.496Z,16.88
2022-12-17T08:21:48.449Z,22.50
2022-12-17T08:22:48.338Z,22.50
2022-12-17T08:23:48.270Z,22.50
2022-12-17T08:24:48.237Z,22.50
2022-12-17T08:25:48.115Z,22.50
2022-12-17T08:26:48.561Z,22.50
2022-12-17T08:27:48.001Z,22.50
2022-12-17T08:28:50.859Z,28.12
2022-12-17T08:29:47.940Z,22.50
2022-12-17T08:30:47.899Z,28.12
2022-12-17T08:31:47.735Z,28.12
2022-12-17T08:32:47.682Z,28.12
2022-12-17T08:37:15.158Z,28.12
2022-12-17T08:38:16.116Z,33.75
2022-12-17T08:39:16.043Z,39.38
2022-12-17T08:40:15.963Z,39.38
2022-12-17T08:41:15.902Z,39.38
2022-12-17T08:42:15.829Z,39.38
2022-12-17T08:43:15.793Z,33.75
2022-12-17T08:44:15.696Z,33.75
2022-12-17T08:45:15.631Z,39.38
2022-12-17T08:46:15.660Z,39.38
2022-12-17T08:47:15.542Z,45.00
2022-12-17T08:48:15.480Z,45.00
2022-12-17T08:49:15.345Z,45.00
2022-12-17T08:50:15.342Z,45.00
2022-12-17T08:51:15.266Z,39.38
2022-12-17T08:52:15.169Z,33.75
2022-12-17T08:53:15.135Z,33.75
2022-12-17T08:55:24.422Z,50.62
2022-12-17T08:56:25.140Z,50.62
2022-12-17T08:57:31.912Z,45.00
2022-12-17T08:58:25.016Z,45.00
2022-12-17T08:59:24.960Z,45.00
2022-12-17T09:00:24.896Z,33.75
2022-12-17T09:01:24.977Z,33.75
2022-12-17T09:02:24.989Z,45.00
2022-12-17T09:03:24.879Z,45.00
2022-12-17T09:04:24.634Z,50.62
2022-12-17T09:05:24.564Z,39.38
2022-12-17T09:06:24.493Z,39.38
2022-12-17T09:07:24.447Z,45.00
2022-12-17T09:08:24.392Z,50.62
2022-12-17T09:09:24.273Z,45.00
2022-12-17T09:10:24.270Z,50.62
2022-12-17T09:11:24.151Z,56.25
2022-12-17T09:14:03.028Z,39.38
2022-12-17T09:15:03.992Z,45.00
2022-12-17T09:16:03.907Z,50.62
2022-12-17T09:17:03.965Z,56.25
2022-12-17T09:18:03.801Z,56.25
2022-12-17T09:19:03.710Z,56.25
2022-12-17T09:20:03.678Z,45.00
2022-12-17T09:21:03.604Z,50.62
2022-12-17T09:22:03.516Z,45.00
2022-12-17T09:23:03.418Z,56.25
2022-12-17T09:24:03.424Z,56.25
2022-12-17T09:25:03.312Z,50.62
2022-12-17T09:26:03.225Z,56.25
2022-12-17T09:27:03.227Z,50.62
2022-12-17T09:28:03.123Z,45.00
2022-12-17T09:29:03.059Z,50.62
2022-12-17T09:30:03.005Z,61.88
2022-12-17T09:31:02.996Z,45.00
2022-12-17T09:32:02.840Z,50.62
2022-12-17T09:33:02.795Z,50.62
2022-12-17T09:34:02.763Z,50.62
2022-12-17T09:35:02.699Z,56.25
2022-12-17T09:36:02.615Z,56.25
2022-12-17T09:37:02.534Z,56.25
2022-12-17T09:38:02.478Z,56.25
2022-12-17T09:39:02.431Z,56.25
2022-12-17T09:40:02.383Z,45.00
2022-12-17T09:41:02.284Z,56.25
2022-12-17T09:42:02.242Z,56.25
2022-12-17T09:43:02.147Z,61.88
2022-12-17T09:44:02.080Z,61.88
2022-12-17T09:45:02.014Z,45.00
2022-12-17T09:46:02.011Z,45.00
2022-12-17T09:47:01.894Z,56.25
2022-12-17T09:48:22.805Z,56.25
2022-12-17T09:49:01.793Z,61.88
2022-12-17T09:50:01.723Z,56.25
2022-12-17T09:51:01.649Z,56.25
2022-12-17T09:52:01.561Z,56.25
2022-12-17T09:53:01.589Z,50.62
2022-12-17T09:54:01.424Z,50.62
2022-12-17T09:55:01.961Z,56.25
2022-12-17T09:56:01.303Z,50.62
2022-12-17T09:57:01.238Z,61.88
2022-12-17T09:58:01.176Z,73.12
2022-12-17T09:59:01.104Z,67.50
2022-12-17T10:00:01.094Z,67.50
2022-12-17T10:01:01.321Z,67.50
2022-12-17T10:02:01.208Z,56.25
2022-12-17T10:03:01.037Z,56.25
2022-12-17T10:04:00.809Z,61.88
2022-12-17T10:05:00.715Z,67.50
2022-12-17T10:06:00.671Z,73.12
2022-12-17T10:07:00.608Z,61.88
2022-12-17T10:08:00.498Z,67.50
2022-12-17T10:09:00.494Z,73.12
2022-12-17T10:10:00.406Z,61.88
2022-12-17T10:11:00.329Z,61.88
2022-12-17T10:12:00.279Z,67.50
2022-12-17T10:13:00.170Z,56.25
2022-12-17T10:14:00.157Z,56.25
2022-12-17T10:15:00.104Z,56.25
2022-12-17T10:16:00.034Z,56.25
2022-12-17T10:16:59.961Z,56.25
2022-12-17T10:17:59.901Z,56.25
2022-12-17T10:18:59.842Z,61.88
2022-12-17T10:19:59.721Z,61.88
2022-12-17T10:20:59.658Z,67.50
2022-12-17T10:21:59.609Z,61.88
2022-12-17T10:22:59.550Z,61.88
2022-12-17T10:23:59.503Z,61.88
2022-12-17T10:24:59.439Z,61.88
2022-12-17T10:25:59.379Z,61.88
2022-12-17T10:26:59.284Z,67.50
2022-12-17T10:27:59.194Z,56.25
2022-12-17T10:28:59.163Z,61.88
2022-12-17T10:29:59.096Z,56.25
2022-12-17T10:30:59.057Z,50.62
2022-12-17T10:31:58.992Z,56.25
2022-12-17T10:32:58.890Z,61.88
2022-12-17T10:33:58.831Z,56.25
2022-12-17T10:35:04.999Z,56.25
2022-12-17T10:35:58.694Z,61.88
2022-12-17T10:36:58.615Z,56.25
2022-12-17T10:37:58.572Z,56.25
2022-12-17T10:38:58.510Z,50.62
2022-12-17T10:39:58.468Z,50.62
2022-12-17T10:40:58.376Z,56.25
2022-12-17T10:42:19.302Z,67.50
2022-12-17T10:42:58.243Z,61.88
2022-12-17T10:43:58.159Z,61.88
2022-12-17T10:44:58.148Z,61.88
2022-12-17T10:45:58.087Z,73.12
2022-12-17T10:46:57.990Z,61.88
2022-12-17T10:47:57.952Z,67.50
2022-12-17T10:48:57.860Z,73.12
2022-12-17T10:49:57.815Z,78.75
2022-12-17T10:50:57.728Z,78.75
2022-12-17T10:51:57.635Z,73.12
2022-12-17T10:52:57.595Z,78.75
2022-12-17T10:53:57.536Z,73.12
2022-12-17T10:54:57.443Z,78.75
2022-12-17T10:55:57.423Z,78.75
2022-12-17T10:56:57.365Z,73.12
2022-12-17T10:57:57.244Z,106.88
2022-12-17T10:58:57.203Z,112.50
2022-12-17T11:00:18.120Z,73.12
2022-12-17T11:00:57.097Z,56.25
2022-12-17T11:02:18.373Z,61.88
2022-12-17T11:02:57.177Z,84.38
2022-12-17T11:03:56.949Z,84.38
2022-12-17T11:04:56.809Z,67.50
2022-12-17T11:05:59.869Z,56.25
2022-12-17T11:06:56.658Z,73.12
2022-12-17T11:07:56.592Z,78.75
2022-12-17T11:08:56.525Z,73.12
2022-12-17T11:09:56.491Z,73.12
2022-12-17T11:10:56.501Z,73.12
2022-12-17T11:11:56.373Z,78.75
2022-12-17T11:12:56.363Z,73.12
2022-12-17T11:13:56.256Z,67.50
2022-12-17T11:14:56.134Z,73.12
2022-12-17T11:15:56.122Z,61.88
2022-12-17T11:16:56.070Z,78.75
2022-12-17T11:17:55.986Z,78.75
2022-12-17T11:18:55.922Z,73.12
2022-12-17T11:19:55.870Z,67.50
2022-12-17T11:20:55.801Z,78.75
2022-12-17T11:21:55.738Z,78.75
2022-12-17T11:22:55.647Z,73.12
2022-12-17T11:23:55.591Z,61.88
2022-12-17T11:24:55.501Z,67.50
2022-12-17T11:25:55.493Z,67.50
2022-12-17T11:26:55.399Z,61.88
2022-12-17T11:27:55.292Z,61.88
2022-12-17T11:28:55.369Z,61.88
2022-12-17T11:29:55.233Z,61.88
2022-12-17T11:30:55.147Z,61.88
2022-12-17T11:31:55.058Z,67.50
2022-12-17T11:32:54.998Z,67.50
2022-12-17T11:33:54.941Z,73.12
2022-12-17T11:34:54.870Z,67.50
2022-12-17T11:37:33.734Z,56.25
2022-12-17T11:38:35.139Z,61.88
2022-12-17T11:39:34.580Z,67.50
2022-12-17T11:40:34.568Z,67.50
2022-12-17T11:41:34.451Z,67.50
2022-12-17T11:42:34.404Z,73.12
2022-12-17T11:43:34.307Z,78.75
2022-12-17T11:44:34.252Z,73.12
2022-12-17T11:45:34.147Z,73.12
2022-12-17T11:46:34.156Z,67.50
2022-12-17T11:47:34.544Z,73.12
2022-12-17T11:48:34.279Z,73.12
2022-12-17T11:49:33.941Z,78.75
2022-12-17T11:50:33.834Z,73.12
2022-12-17T11:51:33.796Z,67.50
2022-12-17T11:52:33.754Z,73.12
2022-12-17T11:53:33.677Z,73.12
2022-12-17T11:54:33.618Z,84.38
2022-12-17T11:55:33.530Z,73.12
2022-12-17T11:56:33.467Z,73.12
2022-12-17T11:57:33.403Z,67.50
2022-12-17T11:58:33.501Z,73.12
2022-12-17T11:59:33.286Z,73.12
2022-12-17T12:00:33.202Z,84.38
2022-12-17T12:01:33.206Z,73.12
2022-12-17T12:02:33.136Z,67.50
2022-12-17T12:03:33.119Z,56.25
2022-12-17T12:04:32.921Z,56.25
2022-12-17T12:05:32.891Z,56.25
2022-12-17T12:06:32.836Z,61.88
2022-12-17T12:07:32.740Z,67.50
2022-12-17T12:08:32.685Z,67.50
2022-12-17T12:09:32.592Z,61.88
2022-12-17T12:10:32.537Z,73.12
2022-12-17T12:13:11.410Z,78.75
2022-12-17T12:14:12.383Z,73.12
2022-12-17T12:15:12.272Z,56.25
2022-12-17T12:16:12.338Z,61.88
2022-12-17T12:17:12.210Z,61.88
2022-12-17T12:18:12.069Z,61.88
2022-12-17T12:19:12.003Z,61.88
2022-12-17T12:20:12.011Z,67.50
2022-12-17T12:21:11.877Z,61.88
2022-12-17T12:22:11.811Z,61.88
2022-12-17T12:23:11.763Z,56.25
2022-12-17T12:24:11.680Z,56.25
2022-12-17T12:25:11.620Z,56.25
2022-12-17T12:26:11.583Z,61.88
2022-12-17T12:27:11.527Z,56.25
2022-12-17T12:28:11.453Z,67.50
2022-12-17T12:29:11.403Z,61.88
2022-12-17T12:30:11.346Z,67.50
2022-12-17T12:31:11.337Z,67.50
2022-12-17T12:32:11.288Z,56.25
2022-12-17T12:33:11.141Z,61.88
2022-12-17T12:34:11.093Z,61.88
2022-12-17T12:35:11.027Z,56.25
2022-12-17T12:36:10.934Z,61.88
2022-12-17T12:37:10.837Z,61.88
2022-12-17T12:38:10.834Z,50.62
2022-12-17T12:39:10.766Z,45.00
2022-12-17T12:40:10.743Z,50.62
2022-12-17T12:41:10.648Z,56.25
2022-12-17T12:42:10.543Z,56.25
2022-12-17T12:43:10.477Z,56.25
2022-12-17T12:44:10.383Z,56.25
2022-12-17T12:45:10.348Z,56.25
2022-12-17T12:46:10.312Z,56.25
2022-12-17T12:48:19.436Z,61.88
2022-12-17T12:49:20.342Z,56.25
2022-12-17T12:50:20.274Z,56.25
2022-12-17T12:51:20.182Z,50.62
2022-12-17T12:52:20.119Z,50.62
2022-12-17T12:53:20.116Z,45.00
2022-12-17T12:54:20.043Z,50.62
2022-12-17T12:55:19.958Z,50.62
2022-12-17T12:56:19.894Z,56.25
2022-12-17T12:57:19.853Z,61.88
2022-12-17T12:58:19.735Z,56.25
2022-12-17T12:59:19.760Z,50.62
2022-12-17T13:00:19.655Z,61.88
2022-12-17T13:01:19.608Z,56.25
2022-12-17T13:02:19.637Z,56.25
2022-12-17T13:03:19.460Z,50.62
2022-12-17T13:04:19.392Z,61.88
2022-12-17T13:05:19.326Z,56.25
2022-12-17T13:06:19.207Z,67.50
2022-12-17T13:07:19.165Z,56.25
2022-12-17T13:08:19.134Z,50.62
2022-12-17T13:09:19.046Z,45.00
2022-12-17T13:10:18.977Z,45.00
2022-12-17T13:11:18.936Z,50.62
2022-12-17T13:12:18.857Z,50.62
2022-12-17T13:13:18.757Z,50.62
2022-12-17T13:14:18.729Z,56.25
2022-12-17T13:15:18.654Z,50.62
2022-12-17T13:16:18.591Z,56.25
2022-12-17T13:17:18.515Z,56.25
2022-12-17T13:18:18.487Z,56.25
2022-12-17T13:19:19.393Z,50.62
2022-12-17T13:20:18.359Z,50.62
2022-12-17T13:21:18.248Z,50.62
2022-12-17T13:22:24.015Z,50.62
2022-12-17T13:24:57.069Z,50.62
2022-12-17T13:25:58.045Z,50.62
2022-12-17T13:26:58.019Z,50.62
2022-12-17T13:27:57.891Z,45.00
2022-12-17T13:28:58.005Z,45.00
2022-12-17T13:29:57.792Z,39.38
2022-12-17T13:30:57.676Z,50.62
2022-12-17T13:31:57.689Z,50.62
2022-12-17T13:32:57.536Z,50.62